Ludlow, Massachusetts
Current Conditions -  °F | °C
As of 3:15 AM on Friday 24 Oct 2014 (Local Time) from KCEF Reporting Station
Broken Clouds Broken Clouds  
Wind Chill: 45°   Ceiling: 2700
Heat Index: 48°   Visibility: 10mi
Dew Point: 46°   Wind: 7mph
Humidity: 93%   Direction: 360°N
Pressure: 29.71"   Gusts: NA
Location:  42.16°N, 72.48°W
Report Text: KCEF 240715Z AUTO 36006KT 10SM FEW010 SCT015 BKN027 BKN041 09/08 A2971 RMK AO2 CIG 020V029
Loading
Personal Weather Stations






























Interactive Weather Map
Tropical Storm Tracking
New forecast layout! Learn more

10-Day Weather Forecast

Advertisements
Track Severe Weather on mobile